Time;durP1;ratioP1;P1;durP2;ratioP2;P2;SDS_P1;SDS_P2;PMS_P1;PMS_P2;Temp;Humidity;BMP_temperature;BMP_pressure;BME280_temperature;BME280_humidity;BME280_pressure;Samples;Min_cycle;Max_cycle;Signal;HPM_P1;HPM_P2
2023/03/03 00:02:09;;;;;;;8.68;4.47;;;;;;;;;;10216540;28;20657;-75
2023/03/03 00:07:11;;;;;;;5.95;2.80;;;;;;;;;;10220190;28;20295;-79
2023/03/03 00:12:26;;;;;;;6.87;3.40;;;;;;;;;;10213886;28;20240;-79
2023/03/03 00:17:28;;;;;;;13.68;5.05;;;;;;;;;;10197380;28;20721;-77
2023/03/03 00:22:31;;;;;;;14.60;7.00;;;;;;;;;;10212353;28;20210;-77
2023/03/03 00:27:34;;;;;;;18.35;5.50;;;;;;;;;;10228268;28;20214;-79
2023/03/03 00:32:54;;;;;;;13.93;5.70;;;;;;;;;;10215676;28;20218;-79
2023/03/03 00:37:57;;;;;;;9.77;4.18;;;;;;;;;;10215623;28;20264;-79
2023/03/03 00:42:59;;;;;;;11.98;4.45;;;;;;;;;;10221834;28;20211;-75
2023/03/03 00:48:08;;;;;;;9.47;3.97;;;;;;;;;;10214761;28;21967;-79
2023/03/03 00:53:16;;;;;;;15.73;5.83;;;;;;;;;;10219022;28;20218;-76
2023/03/03 00:58:19;;;;;;;8.18;4.88;;;;;;;;;;10216249;28;20225;-74
2023/03/03 01:03:23;;;;;;;10.30;4.68;;;;;;;;;;10198652;28;20240;-77
2023/03/03 01:08:25;;;;;;;12.67;4.73;;;;;;;;;;10209423;28;20855;-75
2023/03/03 01:13:27;;;;;;;8.03;4.47;;;;;;;;;;10219909;28;20254;-75
2023/03/03 01:18:29;;;;;;;15.52;5.03;;;;;;;;;;10224684;28;20225;-75
2023/03/03 01:23:30;;;;;;;7.68;3.88;;;;;;;;;;10219557;28;20677;-77
2023/03/03 01:28:32;;;;;;;6.43;3.70;;;;;;;;;;10213216;28;20230;-78
2023/03/03 01:33:34;;;;;;;7.10;3.90;;;;;;;;;;10228444;28;20848;-76
2023/03/03 01:38:36;;;;;;;16.45;5.43;;;;;;;;;;10220202;28;20885;-78
2023/03/03 01:43:43;;;;;;;11.30;4.03;;;;;;;;;;10211205;28;20215;-77
2023/03/03 01:48:45;;;;;;;11.63;4.82;;;;;;;;;;10213930;28;20241;-78
2023/03/03 01:53:47;;;;;;;12.87;4.63;;;;;;;;;;10218120;28;20318;-76
2023/03/03 01:58:57;;;;;;;9.38;3.92;;;;;;;;;;10214405;28;20260;-78
2023/03/03 02:03:59;;;;;;;9.77;4.45;;;;;;;;;;10193951;28;20248;-77
2023/03/03 02:09:04;;;;;;;11.13;5.50;;;;;;;;;;10227743;28;20248;-79
2023/03/03 02:14:05;;;;;;;10.55;4.38;;;;;;;;;;10225982;28;20222;-76
2023/03/03 02:19:10;;;;;;;15.60;4.85;;;;;;;;;;10216893;28;20868;-78
2023/03/03 02:24:23;;;;;;;15.50;4.35;;;;;;;;;;10219304;28;20222;-77
2023/03/03 02:29:24;;;;;;;13.90;4.87;;;;;;;;;;10198209;28;20229;-78
2023/03/03 02:34:26;;;;;;;13.40;4.93;;;;;;;;;;10232996;28;20223;-77
2023/03/03 02:39:29;;;;;;;16.52;5.55;;;;;;;;;;10221002;28;20211;-79
2023/03/03 02:44:31;;;;;;;13.98;5.95;;;;;;;;;;10219171;28;20227;-79
2023/03/03 02:49:33;;;;;;;19.00;5.65;;;;;;;;;;10225181;28;20223;-78
2023/03/03 02:54:35;;;;;;;19.10;5.95;;;;;;;;;;10218902;28;20226;-79
2023/03/03 02:59:37;;;;;;;14.32;6.28;;;;;;;;;;10216141;28;20218;-74
2023/03/03 03:04:45;;;;;;;11.30;5.20;;;;;;;;;;10225120;28;20211;-78
2023/03/03 03:09:51;;;;;;;14.70;5.80;;;;;;;;;;10201200;28;20225;-78
2023/03/03 03:14:53;;;;;;;13.30;5.78;;;;;;;;;;10224825;28;20277;-75
2023/03/03 03:19:54;;;;;;;22.67;6.95;;;;;;;;;;10210553;28;20324;-77
2023/03/03 03:24:56;;;;;;;17.80;5.93;;;;;;;;;;10212500;28;20218;-79
2023/03/03 03:29:57;;;;;;;13.98;5.57;;;;;;;;;;10204766;28;20221;-78
2023/03/03 03:34:59;;;;;;;13.23;5.93;;;;;;;;;;10222985;28;20886;-77
2023/03/03 03:40:00;;;;;;;15.23;5.80;;;;;;;;;;10235774;28;20225;-77
2023/03/03 03:45:02;;;;;;;11.05;5.15;;;;;;;;;;10217146;28;20272;-79
2023/03/03 03:50:04;;;;;;;12.07;5.63;;;;;;;;;;10233799;28;20228;-77
2023/03/03 03:55:06;;;;;;;12.25;5.72;;;;;;;;;;10217149;28;20301;-77
2023/03/03 04:00:09;;;;;;;18.45;6.38;;;;;;;;;;10231536;28;20216;-79
2023/03/03 04:05:14;;;;;;;19.55;7.00;;;;;;;;;;10218822;28;20178;-76
2023/03/03 04:10:17;;;;;;;16.58;6.65;;;;;;;;;;10210136;28;20207;-77
2023/03/03 04:15:19;;;;;;;14.63;6.15;;;;;;;;;;10215660;28;20210;-78
2023/03/03 04:20:20;;;;;;;15.70;5.97;;;;;;;;;;10217459;28;21744;-78
2023/03/03 04:25:22;;;;;;;13.75;5.70;;;;;;;;;;10207094;28;20257;-76
2023/03/03 04:30:25;;;;;;;13.35;6.25;;;;;;;;;;10213119;28;20229;-78
2023/03/03 04:35:29;;;;;;;14.43;6.00;;;;;;;;;;10220180;28;20233;-78
2023/03/03 04:40:31;;;;;;;12.70;5.95;;;;;;;;;;10217392;28;20231;-79
2023/03/03 04:45:34;;;;;;;17.33;6.68;;;;;;;;;;10220291;28;20241;-76
2023/03/03 04:50:35;;;;;;;15.07;5.80;;;;;;;;;;10216829;28;20331;-78
2023/03/03 04:55:37;;;;;;;15.27;6.90;;;;;;;;;;10179927;28;20226;-77
2023/03/03 05:00:40;;;;;;;12.43;6.07;;;;;;;;;;10199255;28;20253;-79
2023/03/03 05:05:42;;;;;;;15.63;5.78;;;;;;;;;;10228859;28;20226;-79
2023/03/03 05:10:44;;;;;;;13.50;5.68;;;;;;;;;;10216294;28;20901;-80
2023/03/03 05:15:52;;;;;;;11.60;5.85;;;;;;;;;;10218810;28;20245;-77
2023/03/03 05:20:53;;;;;;;10.55;5.65;;;;;;;;;;10220173;28;20226;-74
2023/03/03 05:25:54;;;;;;;11.75;5.90;;;;;;;;;;10218468;28;20237;-77
2023/03/03 05:30:55;;;;;;;14.82;6.22;;;;;;;;;;10215789;28;20214;-78
2023/03/03 05:35:57;;;;;;;13.63;5.68;;;;;;;;;;10219255;28;20222;-79
2023/03/03 05:40:58;;;;;;;10.68;5.75;;;;;;;;;;10197315;28;20215;-78
2023/03/03 05:45:59;;;;;;;14.17;5.87;;;;;;;;;;10201282;28;20222;-77
2023/03/03 05:51:01;;;;;;;11.02;5.15;;;;;;;;;;10187137;28;20218;-77
2023/03/03 05:56:02;;;;;;;16.57;4.53;;;;;;;;;;10205114;28;20226;-78
2023/03/03 06:01:03;;;;;;;16.20;7.38;;;;;;;;;;10195692;28;20997;-76
2023/03/03 06:06:04;;;;;;;23.77;11.98;;;;;;;;;;10207008;28;20260;-77
2023/03/03 06:11:06;;;;;;;15.13;6.93;;;;;;;;;;10204421;28;20266;-77
2023/03/03 06:16:07;;;;;;;17.57;6.57;;;;;;;;;;10190421;28;20241;-79
2023/03/03 06:21:09;;;;;;;21.65;7.63;;;;;;;;;;10204021;28;20286;-78
2023/03/03 06:26:10;;;;;;;18.65;6.63;;;;;;;;;;10202945;28;20214;-77
2023/03/03 06:31:11;;;;;;;19.73;7.20;;;;;;;;;;10203875;28;20332;-79
2023/03/03 06:36:12;;;;;;;17.20;7.25;;;;;;;;;;10196467;28;20274;-78
2023/03/03 06:41:13;;;;;;;16.88;7.20;;;;;;;;;;10220646;28;20225;-79
2023/03/03 06:46:16;;;;;;;16.20;6.22;;;;;;;;;;10208203;28;20265;-78
2023/03/03 06:51:27;;;;;;;11.77;6.13;;;;;;;;;;10206570;28;20218;-81
2023/03/03 06:56:28;;;;;;;16.60;6.63;;;;;;;;;;10198098;28;20690;-77
2023/03/03 07:01:38;;;;;;;14.32;5.60;;;;;;;;;;10204133;28;20240;-79
2023/03/03 07:06:39;;;;;;;11.07;5.47;;;;;;;;;;10211339;28;20214;-78
2023/03/03 07:11:40;;;;;;;11.30;5.10;;;;;;;;;;10214870;28;20249;-80
2023/03/03 07:16:41;;;;;;;7.80;5.13;;;;;;;;;;10216146;28;20991;-78
2023/03/03 07:21:42;;;;;;;12.70;6.05;;;;;;;;;;10216776;28;20272;-77
2023/03/03 07:26:44;;;;;;;13.00;5.95;;;;;;;;;;10221686;28;20581;-81
2023/03/03 07:31:47;;;;;;;17.80;5.97;;;;;;;;;;10217674;28;20248;-77
2023/03/03 07:36:49;;;;;;;12.52;5.55;;;;;;;;;;10212531;28;20228;-78
2023/03/03 07:41:50;;;;;;;13.07;5.33;;;;;;;;;;10209059;28;20726;-79
2023/03/03 07:46:52;;;;;;;14.02;6.20;;;;;;;;;;10206142;28;20313;-78
2023/03/03 07:51:56;;;;;;;22.52;6.97;;;;;;;;;;10194674;28;20933;-79
2023/03/03 07:57:02;;;;;;;13.13;5.60;;;;;;;;;;10205674;28;20230;-78
2023/03/03 08:02:05;;;;;;;15.23;5.72;;;;;;;;;;10209714;28;20222;-78
2023/03/03 08:07:11;;;;;;;17.38;6.38;;;;;;;;;;10210918;28;20243;-78
2023/03/03 08:12:19;;;;;;;14.23;6.65;;;;;;;;;;10206619;28;20270;-77
2023/03/03 08:17:21;;;;;;;15.68;7.38;;;;;;;;;;10216954;28;20226;-77
2023/03/03 08:22:34;;;;;;;18.92;7.10;;;;;;;;;;10217456;28;20218;-77
2023/03/03 08:27:35;;;;;;;14.98;6.57;;;;;;;;;;10207941;28;20242;-76
2023/03/03 08:32:36;;;;;;;18.85;7.82;;;;;;;;;;10210691;28;20223;-76
2023/03/03 08:37:37;;;;;;;20.13;8.27;;;;;;;;;;10193150;28;20863;-79
2023/03/03 08:42:38;;;;;;;16.92;6.28;;;;;;;;;;10212635;28;20218;-74
2023/03/03 08:47:40;;;;;;;14.65;6.47;;;;;;;;;;10190832;28;21132;-78
2023/03/03 08:52:41;;;;;;;12.85;6.55;;;;;;;;;;10214139;28;20228;-78
2023/03/03 09:47:23;;;;;;;13.82;5.95;;;;;;;;;;10205969;28;20225;-76
2023/03/03 09:52:31;;;;;;;11.68;6.18;;;;;;;;;;10212169;28;20209;-76
2023/03/03 09:57:50;;;;;;;14.52;6.13;;;;;;;;;;10195419;28;20229;-77
2023/03/03 10:03:21;;;;;;;11.77;5.28;;;;;;;;;;10193630;28;20226;-78
2023/03/03 10:08:30;;;;;;;9.90;5.00;;;;;;;;;;10152466;28;20299;-77
2023/03/03 10:13:38;;;;;;;13.43;5.72;;;;;;;;;;10206266;28;20304;-77
2023/03/03 10:18:48;;;;;;;16.38;5.50;;;;;;;;;;10205868;28;20891;-76
2023/03/03 10:23:54;;;;;;;13.30;6.40;;;;;;;;;;10205528;28;20314;-75
2023/03/03 10:28:59;;;;;;;12.32;5.32;;;;;;;;;;10182789;28;20225;-77
2023/03/03 10:34:06;;;;;;;11.23;6.07;;;;;;;;;;10201519;28;20649;-77
2023/03/03 10:39:10;;;;;;;12.10;5.63;;;;;;;;;;10191284;28;20218;-79
2023/03/03 10:44:24;;;;;;;10.75;5.80;;;;;;;;;;10204160;28;20313;-78
2023/03/03 10:49:39;;;;;;;12.27;5.40;;;;;;;;;;10191147;28;20219;-79
2023/03/03 10:54:49;;;;;;;11.85;6.00;;;;;;;;;;10202885;28;20218;-77
2023/03/03 10:59:59;;;;;;;16.35;5.63;;;;;;;;;;10203159;28;20214;-78
2023/03/03 11:05:10;;;;;;;12.30;6.10;;;;;;;;;;10207017;28;20249;-77
2023/03/03 11:10:29;;;;;;;12.00;5.65;;;;;;;;;;10189022;28;20787;-78
2023/03/03 11:15:44;;;;;;;14.25;7.00;;;;;;;;;;10206241;28;20339;-78
2023/03/03 11:20:49;;;;;;;14.65;5.90;;;;;;;;;;10177815;28;20230;-77
2023/03/03 11:26:01;;;;;;;11.82;5.68;;;;;;;;;;10203964;28;20261;-77
2023/03/03 11:31:02;;;;;;;13.38;5.45;;;;;;;;;;10205535;28;20289;-79
2023/03/03 11:36:12;;;;;;;13.75;6.07;;;;;;;;;;10201596;28;20277;-78
2023/03/03 11:41:30;;;;;;;10.15;5.13;;;;;;;;;;10203433;28;20578;-80
2023/03/03 11:46:37;;;;;;;11.88;6.68;;;;;;;;;;10208062;28;20226;-78
2023/03/03 11:51:38;;;;;;;18.92;7.05;;;;;;;;;;10206966;28;20301;-77
2023/03/03 11:56:41;;;;;;;14.88;6.90;;;;;;;;;;10210472;28;20233;-78
2023/03/03 12:01:54;;;;;;;9.23;6.13;;;;;;;;;;10207891;28;20229;-79
2023/03/03 12:06:55;;;;;;;13.35;7.18;;;;;;;;;;10208431;28;20236;-79
2023/03/03 12:12:06;;;;;;;13.63;6.78;;;;;;;;;;10206178;28;20225;-78
2023/03/03 12:17:27;;;;;;;10.90;6.45;;;;;;;;;;10205120;28;20264;-79
2023/03/03 12:22:41;;;;;;;14.52;7.00;;;;;;;;;;10209253;28;20312;-79
2023/03/03 12:27:59;;;;;;;15.07;7.07;;;;;;;;;;10201846;28;20219;-79
2023/03/03 12:33:18;;;;;;;10.68;5.80;;;;;;;;;;10204945;28;20305;-78
2023/03/03 12:38:27;;;;;;;12.88;5.97;;;;;;;;;;10195773;28;20295;-79
2023/03/03 12:43:33;;;;;;;13.30;5.60;;;;;;;;;;10208646;28;20642;-78
2023/03/03 12:48:41;;;;;;;9.60;5.70;;;;;;;;;;10206457;28;20260;-77
2023/03/03 12:53:43;;;;;;;11.88;5.22;;;;;;;;;;10180747;28;20227;-79
2023/03/03 12:58:44;;;;;;;11.80;5.57;;;;;;;;;;10173038;28;20302;-78
2023/03/03 13:03:52;;;;;;;10.73;6.22;;;;;;;;;;10207524;28;20217;-76
2023/03/03 13:09:01;;;;;;;13.38;5.72;;;;;;;;;;10201402;28;20313;-78
2023/03/03 13:14:11;;;;;;;7.72;4.68;;;;;;;;;;10215277;28;20317;-77
2023/03/03 13:19:16;;;;;;;10.45;5.55;;;;;;;;;;10222984;28;20664;-78
2023/03/03 13:24:23;;;;;;;8.02;5.10;;;;;;;;;;10221147;28;20230;-80
2023/03/03 13:29:32;;;;;;;12.20;6.03;;;;;;;;;;10215864;28;20217;-76
2023/03/03 13:34:54;;;;;;;10.27;5.38;;;;;;;;;;10217703;28;20222;-79
2023/03/03 13:39:56;;;;;;;8.15;4.43;;;;;;;;;;10211551;28;20214;-76
2023/03/03 13:44:57;;;;;;;12.65;6.43;;;;;;;;;;10199108;28;20202;-80
2023/03/03 13:50:10;;;;;;;8.48;5.10;;;;;;;;;;10216538;28;20249;-77
2023/03/03 13:55:26;;;;;;;8.98;5.05;;;;;;;;;;10216452;28;20224;-79
2023/03/03 14:00:30;;;;;;;8.43;4.70;;;;;;;;;;10214738;28;20217;-79
2023/03/03 14:05:37;;;;;;;12.45;5.80;;;;;;;;;;10212224;28;20751;-78
2023/03/03 14:10:41;;;;;;;9.32;5.75;;;;;;;;;;10179737;28;20226;-79
2023/03/03 14:15:52;;;;;;;9.30;5.20;;;;;;;;;;10216441;28;20261;-80
2023/03/03 14:20:54;;;;;;;9.88;5.65;;;;;;;;;;10200561;28;20218;-79
2023/03/03 14:26:04;;;;;;;9.68;5.50;;;;;;;;;;10213353;28;20226;-78
2023/03/03 14:31:20;;;;;;;9.43;4.75;;;;;;;;;;10194742;28;20222;-76
2023/03/03 14:36:26;;;;;;;7.55;4.95;;;;;;;;;;10210357;28;20230;-78
2023/03/03 14:41:42;;;;;;;10.60;5.55;;;;;;;;;;10204749;28;20252;-77
2023/03/03 14:46:43;;;;;;;6.90;4.65;;;;;;;;;;10202732;28;20218;-78
2023/03/03 14:51:49;;;;;;;9.95;4.95;;;;;;;;;;10205104;28;20306;-77
2023/03/03 14:57:16;;;;;;;6.97;4.90;;;;;;;;;;10207697;28;21026;-77
2023/03/03 15:02:17;;;;;;;8.50;4.93;;;;;;;;;;10171300;28;20230;-77
2023/03/03 15:07:37;;;;;;;9.25;5.05;;;;;;;;;;10192801;28;20229;-79
2023/03/03 15:12:40;;;;;;;7.18;4.70;;;;;;;;;;10207979;28;20703;-76
2023/03/03 15:17:54;;;;;;;9.68;5.22;;;;;;;;;;10195128;28;20313;-78
2023/03/03 15:22:59;;;;;;;10.93;6.00;;;;;;;;;;10214756;28;20230;-78
2023/03/03 15:28:05;;;;;;;9.27;5.35;;;;;;;;;;10210461;28;20759;-77
2023/03/03 15:33:13;;;;;;;8.45;4.88;;;;;;;;;;10212064;28;20210;-77
2023/03/03 15:38:26;;;;;;;10.32;5.53;;;;;;;;;;10211492;28;20241;-80
2023/03/03 15:43:32;;;;;;;11.02;5.72;;;;;;;;;;10209708;28;20214;-79
2023/03/03 15:48:41;;;;;;;10.43;6.07;;;;;;;;;;10178908;28;22464;-78
2023/03/03 15:53:42;;;;;;;10.02;6.13;;;;;;;;;;10202289;28;20218;-79
2023/03/03 15:58:46;;;;;;;14.07;6.43;;;;;;;;;;10205117;28;20542;-79
2023/03/03 16:03:53;;;;;;;12.93;5.55;;;;;;;;;;10212265;28;20305;-77
2023/03/03 16:09:02;;;;;;;12.02;5.43;;;;;;;;;;10213967;28;20881;-78
2023/03/03 16:14:30;;;;;;;12.10;5.28;;;;;;;;;;10214057;28;20218;-80
2023/03/03 16:19:36;;;;;;;13.32;5.70;;;;;;;;;;10207261;28;20268;-80
2023/03/03 16:24:46;;;;;;;11.45;5.97;;;;;;;;;;10211754;28;20305;-78
2023/03/03 16:29:58;;;;;;;9.80;4.93;;;;;;;;;;10209796;28;20657;-80
2023/03/03 16:35:14;;;;;;;11.23;6.03;;;;;;;;;;10184749;28;20975;-78
2023/03/03 16:40:18;;;;;;;12.90;5.65;;;;;;;;;;10214240;28;20244;-76
2023/03/03 16:45:32;;;;;;;11.48;6.32;;;;;;;;;;10176190;28;20194;-79
2023/03/03 16:50:53;;;;;;;15.70;5.95;;;;;;;;;;10199565;28;20226;-81
2023/03/03 16:55:57;;;;;;;8.02;5.10;;;;;;;;;;10204348;28;20250;-79
2023/03/03 17:01:22;;;;;;;13.00;5.18;;;;;;;;;;10223792;28;21198;-78
2023/03/03 17:06:29;;;;;;;13.57;5.78;;;;;;;;;;10206714;28;20281;-80
2023/03/03 17:11:45;;;;;;;12.88;6.28;;;;;;;;;;10199283;28;20222;-78
2023/03/03 17:16:53;;;;;;;13.77;7.13;;;;;;;;;;10185200;28;20721;-79
2023/03/03 17:22:04;;;;;;;17.05;7.40;;;;;;;;;;10197685;28;20610;-78
2023/03/03 17:27:11;;;;;;;12.32;5.75;;;;;;;;;;10210817;28;20226;-79
2023/03/03 17:32:23;;;;;;;11.32;5.90;;;;;;;;;;10193915;28;21122;-79
2023/03/03 17:37:27;;;;;;;9.95;6.10;;;;;;;;;;10206347;28;20222;-80
2023/03/03 17:42:42;;;;;;;11.40;5.20;;;;;;;;;;10218219;28;20688;-75
2023/03/03 17:47:53;;;;;;;12.38;6.22;;;;;;;;;;10204696;28;20216;-76
2023/03/03 17:53:06;;;;;;;13.57;6.60;;;;;;;;;;10186107;28;20798;-78
2023/03/03 17:58:20;;;;;;;20.17;7.95;;;;;;;;;;10202669;28;20231;-76
2023/03/03 18:03:37;;;;;;;18.10;7.40;;;;;;;;;;10206369;28;20810;-79
2023/03/03 18:08:57;;;;;;;19.25;7.72;;;;;;;;;;10194895;28;20268;-79
2023/03/03 18:14:17;;;;;;;21.45;7.32;;;;;;;;;;10185450;28;20225;-78
2023/03/03 18:19:45;;;;;;;15.70;7.80;;;;;;;;;;10184572;28;20268;-78
2023/03/03 18:24:49;;;;;;;18.60;6.88;;;;;;;;;;10156064;28;20222;-78
2023/03/03 18:30:11;;;;;;;13.35;6.78;;;;;;;;;;10202302;28;20218;-76
2023/03/03 18:35:20;;;;;;;20.67;8.10;;;;;;;;;;10138486;28;20261;-81
2023/03/03 18:40:21;;;;;;;16.90;7.57;;;;;;;;;;10197048;28;20203;-78
2023/03/03 18:45:24;;;;;;;20.00;8.27;;;;;;;;;;10177852;28;20213;-77
2023/03/03 18:50:33;;;;;;;18.85;8.35;;;;;;;;;;10198670;28;20222;-76
2023/03/03 18:55:39;;;;;;;22.15;9.20;;;;;;;;;;10204358;28;20226;-78
2023/03/03 19:00:49;;;;;;;20.73;8.45;;;;;;;;;;10196711;28;20241;-76
2023/03/03 19:05:56;;;;;;;23.75;9.60;;;;;;;;;;10199669;28;20334;-77
2023/03/03 19:10:57;;;;;;;16.23;8.02;;;;;;;;;;10201155;28;20218;-77
2023/03/03 19:16:00;;;;;;;18.23;8.57;;;;;;;;;;10200105;28;20744;-79
2023/03/03 19:21:06;;;;;;;22.73;8.10;;;;;;;;;;10188905;28;20714;-78
2023/03/03 19:26:28;;;;;;;19.73;8.70;;;;;;;;;;10201647;28;20221;-77
2023/03/03 19:31:35;;;;;;;18.58;8.40;;;;;;;;;;10204255;28;20226;-76
2023/03/03 19:36:37;;;;;;;18.95;8.60;;;;;;;;;;10184197;28;20242;-79
2023/03/03 19:41:56;;;;;;;22.33;8.77;;;;;;;;;;10199720;28;20232;-78
2023/03/03 19:47:01;;;;;;;18.40;8.30;;;;;;;;;;10199355;28;20340;-77
2023/03/03 19:52:11;;;;;;;38.17;9.97;;;;;;;;;;10198239;28;20218;-77
2023/03/03 19:57:19;;;;;;;24.23;10.50;;;;;;;;;;10200454;28;20225;-80
2023/03/03 20:02:23;;;;;;;36.83;13.18;;;;;;;;;;10198248;28;20285;-77
2023/03/03 20:07:32;;;;;;;42.20;14.10;;;;;;;;;;10203586;28;20308;-77
2023/03/03 20:13:09;;;;;;;29.15;11.85;;;;;;;;;;10204465;28;20214;-79
2023/03/03 20:18:21;;;;;;;33.00;11.98;;;;;;;;;;10145827;28;20301;-76
2023/03/03 20:23:47;;;;;;;33.08;13.48;;;;;;;;;;10210974;28;20688;-79
2023/03/03 20:29:01;;;;;;;34.72;13.68;;;;;;;;;;10201244;28;20314;-77
2023/03/03 20:34:05;;;;;;;46.50;13.38;;;;;;;;;;10202201;28;20215;-77
2023/03/03 20:39:06;;;;;;;34.63;12.30;;;;;;;;;;10195895;28;20211;-79
2023/03/03 20:44:10;;;;;;;35.70;11.70;;;;;;;;;;10206456;28;20214;-79
2023/03/03 20:49:30;;;;;;;27.30;11.43;;;;;;;;;;10206579;28;20660;-79
2023/03/03 20:54:31;;;;;;;32.40;10.93;;;;;;;;;;10207727;28;20226;-80
2023/03/03 20:59:42;;;;;;;22.83;9.43;;;;;;;;;;10210129;28;20319;-76
2023/03/03 21:04:43;;;;;;;23.58;8.70;;;;;;;;;;10215703;28;20214;-80
2023/03/03 21:09:46;;;;;;;20.58;8.32;;;;;;;;;;10219419;28;20218;-76
2023/03/03 21:14:58;;;;;;;19.42;7.90;;;;;;;;;;10210981;28;20290;-80
2023/03/03 21:20:18;;;;;;;16.77;7.47;;;;;;;;;;10214494;28;20973;-79
2023/03/03 21:25:38;;;;;;;17.67;6.72;;;;;;;;;;10218843;28;20210;-80
2023/03/03 21:30:58;;;;;;;13.38;7.45;;;;;;;;;;10213564;28;20230;-78
2023/03/03 21:35:59;;;;;;;20.50;7.70;;;;;;;;;;10216547;28;20857;-79
2023/03/03 21:41:00;;;;;;;14.85;7.53;;;;;;;;;;10220798;28;20226;-77
2023/03/03 21:46:02;;;;;;;13.10;7.18;;;;;;;;;;10212975;28;20236;-80
2023/03/03 21:51:03;;;;;;;17.08;7.45;;;;;;;;;;10201755;28;20981;-79
2023/03/03 21:56:04;;;;;;;16.80;7.80;;;;;;;;;;10218105;28;20226;-79
2023/03/03 22:01:05;;;;;;;16.30;7.22;;;;;;;;;;10211825;28;20592;-76
2023/03/03 22:06:06;;;;;;;17.13;7.43;;;;;;;;;;10208982;28;20222;-77
2023/03/03 22:11:07;;;;;;;18.98;9.13;;;;;;;;;;10214300;28;20218;-76
2023/03/03 22:16:10;;;;;;;17.35;7.47;;;;;;;;;;10212938;28;20344;-77
2023/03/03 22:21:11;;;;;;;21.13;9.00;;;;;;;;;;10213677;28;20229;-76
2023/03/03 22:26:13;;;;;;;16.65;7.80;;;;;;;;;;10214572;28;20230;-76
2023/03/03 22:31:14;;;;;;;27.08;10.27;;;;;;;;;;10215317;28;20242;-78
2023/03/03 22:36:17;;;;;;;20.73;8.13;;;;;;;;;;10210764;28;20658;-78
2023/03/03 22:41:18;;;;;;;16.63;7.53;;;;;;;;;;10216125;28;20896;-77
2023/03/03 22:46:19;;;;;;;16.63;8.38;;;;;;;;;;10211313;28;20218;-78
2023/03/03 22:51:21;;;;;;;23.98;10.07;;;;;;;;;;10199241;28;20257;-79
2023/03/03 22:56:22;;;;;;;16.88;8.13;;;;;;;;;;10198787;28;20846;-78
2023/03/03 23:01:23;;;;;;;13.82;7.10;;;;;;;;;;10212903;28;20368;-79
2023/03/03 23:06:24;;;;;;;19.73;7.47;;;;;;;;;;10212037;28;20635;-76
2023/03/03 23:11:26;;;;;;;16.73;7.55;;;;;;;;;;10207476;28;20731;-77
2023/03/03 23:16:27;;;;;;;17.20;8.63;;;;;;;;;;10212438;28;20799;-77
2023/03/03 23:21:28;;;;;;;15.10;7.60;;;;;;;;;;10212072;28;20241;-80
2023/03/03 23:26:30;;;;;;;19.70;7.38;;;;;;;;;;10214381;28;20214;-77
2023/03/03 23:31:31;;;;;;;12.32;7.13;;;;;;;;;;10212841;28;20285;-77
2023/03/03 23:36:32;;;;;;;16.83;6.63;;;;;;;;;;10203430;28;20661;-77
2023/03/03 23:41:33;;;;;;;15.27;6.82;;;;;;;;;;10222355;28;20233;-78
2023/03/03 23:46:34;;;;;;;13.45;7.03;;;;;;;;;;10217293;28;20270;-78
2023/03/03 23:51:35;;;;;;;17.00;7.80;;;;;;;;;;10224901;28;20218;-77
2023/03/03 23:56:37;;;;;;;13.77;6.63;;;;;;;;;;10221518;28;20285;-75
